Marshfield Hills, Massachusetts
Current Conditions -  °F | °C
As of 4:35 PM on Thursday 18 Dec 2014 (Local Time) from KGHG Reporting Station
Overcast Overcast  
Wind Chill: 37°   Ceiling: 3800
Heat Index: 43°   Visibility: 10mi
Dew Point: 30°   Wind: 9mph
Humidity: 61%   Direction: 280°W
Pressure: 29.83"   Gusts: NA
Location:  42.13°N, 70.76°W
Report Text: KGHG 182135Z AUTO 28008KT 010V350 10SM OVC038 06/M01 A2983 RMK AO2
Loading
Personal Weather Stations






























Interactive Weather Map New forecast layout! Learn more

10-Day Weather Forecast

Advertisements
Track Severe Weather on mobile